Flight Briefing for CPX404

Departure Arrival
Nashville International Airport (KBNA)
Click to view FAA NOTAMS
Louis Armstrong New Orleans International Airport (KMSY)
Click to view FAA NOTAMS
Departure Time Arrival Time
N/A N/A
Aircraft Distance
B757-200SF 410nm
Departure METAR Arrival METAR
KBNA 181553Z 07007KT 10SM FEW040 09/M07 A3043 RMK AO2 SLP304 T00891067 KMSY 181553Z 06010KT 10SM FEW180 OVC250 15/04 A3031 RMK AO2 SLP267 T01500044
Suggested Route
LBY MEI IGB HRTUN CHSNE2


View recent IFR Routes data
Notes



Charts and Procedures

Charts for KBNA
No chart available
Charts for KMSY
No chart available

Windy.com Weather Map